EmailTwitter


Observations de surface / Québec / CYHU (71371)

Régions: Québec | Canada | États-Unis | Europe | France | UK | Ailleurs
Station
Affichage
Infos & localisation pour CYHU (71371) | Aide pour décoder les METARs

Observations prises le 2019-09-16 à 08H00 UTC à MONTREAL/ST HUBE, QB (CYHU)

Etat du ciel: partiellement nuageux.

Température: 11.0 Celsius

Point de rosée: 8.0 Celsius

Humidité relative: 82%

Vents: Ouest-nord-ouest à 15 km/h ou 8 noeuds.

Pression au niveau moyen de la mer: 101.89 kilopascals.

Calage altimétrique: 101.86 kilopascals ou 30.08 pouces de mercure.

Visibilité horizontale: 9.00 milles terrestres ou 14.40 kilomètres.

Hauteur du plafond: 7620 mètres ( 25000 pieds ).

Observation METAR:

CYHU 160800Z AUTO 29008KT 9SM FEW065 SCT230 BKN250 11/08 A3008 RMK SLP189=